Saint Barthelemy, St. Barthelemy

3:30 PM AST on July 29, 2014 (GMT -0400)
Cole Bay, St.Maarten (ISINTMAA3) Elev 171 ft | 18.04 °N, 63.08 °W | Change Station

Current weather conditions updated 4 minutes ago

Scattered Clouds
Scattered Clouds
87.9 °F
Feels Like 96 °F
N
3.0
Wind Variable Wind from North
Gusts 8.0 mph

Today is forecast to be nearly the same temperature as yesterday. Light rain late tomorrow night.

Today
High -- | Low -- °F
--% Chance of Precip.
Yesterday
High -- | Low -- °F
Precip. -- in
5:49 AM 6:46 PM
Waxing Crescent, 7% visible
Pressure 30.01 in
Visibility 6.2 miles
Clouds Scattered Clouds 2000 ft
Heat Index 96 °F
Dew Point 74 °F
Humidity 63%
Rainfall 0.30 in
Snow Depth Not available.
UV 9 out of 12
Pollen Not available.
Air Quality Not available.
Flu Activity Not available.
METAR TNCM 291900Z 13011KT 9999 SCT020 29/23 Q1016 A3002 NOSIG

More Conditions Fewer Conditions

Pressure 30.01 in
Visibility 6.2 miles
Clouds Scattered Clouds 2000 ft
Heat Index 96 °F
Dew Point 74 °F
Humidity 63%
Rainfall 0.30 in
Snow Depth Not available.
UV 9 out of 12
Pollen Not available.
Air Quality Not available.
Flu Activity Not available.
METAR TNCM 291900Z 13011KT 9999 SCT020 29/23 Q1016 A3002 NOSIG

More Conditions Fewer Conditions

10-Day Weather Forecast

Almanac

Astronomy

Jul. 29, 2014 Rise Set
Actual Time 5:49 AM AST 6:46 PM AST
Civil Twilight 5:25 AM AST 7:09 PM AST
Nautical Twilight 4:58 AM AST 7:37 PM AST
Astronomical Twilight 4:30 AM AST 8:05 PM AST
Moon 7:53 AM AST 8:28 PM AST
Length of Visible Light 13h 43m
Length of Day
12h 57m
Tomorrow will be 0m 43s shorter.
Waxing Crescent, 7% of the Moon is Illuminated
Today
Waxing Crescent
Aug 3
First Quarter
Aug 10
Full
Aug 17
Last Quarter
Aug 25
New

Community

WunderPhotos

Upload Photos

1,738,834 photos uploaded!

WunderBlogs® & News

Nearby

Snow Depth

Not available.

Earthquake Activity

City Distance Mag. Time & Date
No recent earthquake activity has been reported nearby.
Minimum magnitude displayed is 2.5.

Coastal Water Temperatures

Place Temperature
No Stations Reporting

Nearby Weather Stations

Station Location Temp. Heat Index Dew Point Humidity Wind Precip. Elev Updated Type
St Barthelemy 98.2 °F 122 °F 81 °F 59% East  at  3.6 mph 0.00 in / hr 633 ft 12:20 PM AST Normal
Cole Bay, St.Maarten, Cole Bay 87.9 °F 96 °F 74 °F 63% North  at  3.0 mph 0.00 in / hr 171 ft 3:25 PM AST Normal

Show More Stations Show Fewer Stations